St.-brieuc Armor, Saint-Brieuc – Armor Airport (LFRT)

NameSaint-Brieuc – Armor Airport
CitySt.-brieuc Armor
CountryFrance
ICAOLFRT
IATASBK
Altitude138 m
CoordinatesGoogle Map
Live Air TrafficLiveATC.net
METARLFRT 142100Z AUTO 18005KT 140V230 CAVOK 11/09 Q1019
2018-11-14 21:00:00 Wind: South (180°) 2.57 m/s - Visibility: > 10000 m - Weather: CAVOK - Temperature: 11 °C - Dew point: 9 °C - Humidity: 87.6% - Pressure: 1019 hPa
Statistics

The table below shows the detailed information of all flights to/from St.-brieuc Armor, Saint-Brieuc – Armor Airport (LFRT).